Time;durP1;ratioP1;P1;durP2;ratioP2;P2;SDS_P1;SDS_P2;PMS_P1;PMS_P2;Temp;Humidity;BMP_temperature;BMP_pressure;BME280_temperature;BME280_humidity;BME280_pressure;Samples;Min_cycle;Max_cycle;Signal;HPM_P1;HPM_P2
2021/07/24 00:02:13;;;;;;;16.30;13.03;;;;;;;17.35;71.49;98941.25;2228757;80;20948;-77
2021/07/24 00:05:14;;;;;;;14.65;12.47;;;;;;;17.37;71.51;98935.50;2228871;80;20992;-78
2021/07/24 00:08:14;;;;;;;14.63;12.82;;;;;;;17.36;71.50;98936.39;2228843;80;20980;-79
2021/07/24 00:11:15;;;;;;;14.03;12.45;;;;;;;17.35;71.55;98930.70;2228928;80;20964;-77
2021/07/24 00:14:16;;;;;;;18.35;12.80;;;;;;;17.34;71.70;98934.64;2228557;80;20944;-78
2021/07/24 00:17:16;;;;;;;16.05;12.33;;;;;;;17.34;71.80;98935.95;2228778;80;20940;-77
2021/07/24 00:20:17;;;;;;;13.62;12.28;;;;;;;17.35;71.99;98935.09;2228686;80;20936;-77
2021/07/24 00:23:17;;;;;;;15.53;12.33;;;;;;;17.34;71.91;98932.91;2228636;80;21367;-79
2021/07/24 00:26:18;;;;;;;18.60;12.15;;;;;;;17.33;72.07;98924.53;2228807;80;20916;-78
2021/07/24 00:29:18;;;;;;;16.25;11.33;;;;;;;17.36;72.21;98921.88;2228653;80;20931;-78
2021/07/24 00:32:19;;;;;;;14.60;11.95;;;;;;;17.32;72.13;98926.75;2228655;80;20960;-78
2021/07/24 00:35:19;;;;;;;16.25;12.65;;;;;;;17.30;72.36;98928.53;2228637;80;21327;-79
2021/07/24 00:38:20;;;;;;;15.55;12.28;;;;;;;17.29;72.51;98928.11;2228766;80;20963;-77
2021/07/24 00:41:21;;;;;;;41.63;13.68;;;;;;;17.33;72.45;98925.85;2228646;80;20908;-77
2021/07/24 00:44:21;;;;;;;14.63;12.73;;;;;;;17.33;72.43;98931.12;2228352;80;21027;-78
2021/07/24 00:47:22;;;;;;;13.93;12.40;;;;;;;17.30;72.51;98920.62;2228652;80;20927;-79
2021/07/24 00:50:22;;;;;;;13.43;11.97;;;;;;;17.27;72.58;98922.42;2228717;80;20975;-77
2021/07/24 00:53:24;;;;;;;17.35;12.07;;;;;;;17.23;72.72;98923.36;2228487;80;21387;-77
2021/07/24 00:56:28;;;;;;;13.95;12.18;;;;;;;17.20;72.83;98926.91;2228620;80;20958;-79
2021/07/24 00:59:28;;;;;;;14.75;12.13;;;;;;;17.16;72.86;98919.94;2228756;80;20999;-79
2021/07/24 01:02:29;;;;;;;13.80;12.40;;;;;;;17.12;72.90;98920.42;2228500;80;21367;-79
2021/07/24 01:05:29;;;;;;;15.50;12.05;;;;;;;17.08;73.00;98916.08;2228462;80;20952;-78
2021/07/24 01:08:30;;;;;;;15.43;12.82;;;;;;;17.06;73.06;98913.91;2227912;80;20924;-78
2021/07/24 01:11:30;;;;;;;13.95;12.55;;;;;;;17.05;73.17;98911.30;2227894;80;20979;-78
2021/07/24 01:14:31;;;;;;;18.02;12.80;;;;;;;17.04;73.18;98910.42;2227999;80;21423;-79
2021/07/24 01:17:32;;;;;;;13.83;12.07;;;;;;;17.01;73.23;98911.78;2227970;80;20995;-78
2021/07/24 01:20:32;;;;;;;39.25;15.93;;;;;;;16.98;73.20;98908.31;2227949;80;20917;-78
2021/07/24 01:23:33;;;;;;;15.68;12.50;;;;;;;16.97;73.34;98910.08;2227949;80;20975;-78
2021/07/24 01:26:36;;;;;;;17.50;12.53;;;;;;;16.97;73.50;98906.12;2227759;80;20959;-77
2021/07/24 01:29:37;;;;;;;26.00;13.07;;;;;;;16.99;73.29;98906.97;2227984;80;21000;-77
2021/07/24 01:32:37;;;;;;;17.40;13.13;;;;;;;16.99;73.29;98906.97;2227709;80;22086;-77
2021/07/24 01:35:38;;;;;;;17.20;12.75;;;;;;;16.99;73.54;98909.61;2227844;80;21027;-77
2021/07/24 01:38:38;;;;;;;13.90;11.97;;;;;;;16.96;73.59;98903.06;2227721;80;20979;-77
2021/07/24 01:41:39;;;;;;;14.13;12.63;;;;;;;16.98;73.66;98903.91;2227952;80;21332;-77
2021/07/24 01:44:40;;;;;;;13.43;12.07;;;;;;;17.04;73.59;98906.47;2227730;80;21364;-77
2021/07/24 01:47:40;;;;;;;14.75;12.28;;;;;;;17.06;73.42;98902.48;2227917;80;21069;-78
2021/07/24 01:54:00;;;;;;;18.32;14.03;;;;;;;17.02;73.25;98903.42;2225943;80;21486;-78
2021/07/24 01:57:00;;;;;;;27.75;14.00;;;;;;;17.04;73.02;98905.59;2211257;81;20941;-79
2021/07/24 02:00:01;;;;;;;16.35;13.13;;;;;;;17.09;72.89;98906.41;2211213;81;20932;-79
2021/07/24 02:03:01;;;;;;;15.18;11.78;;;;;;;17.13;72.80;98908.11;2210929;81;20956;-80
2021/07/24 02:06:03;;;;;;;18.60;13.20;;;;;;;17.14;72.90;98902.81;2211338;81;21297;-78
2021/07/24 02:09:03;;;;;;;13.95;12.55;;;;;;;17.15;72.97;98902.36;2211097;81;20920;-79
2021/07/24 02:12:03;;;;;;;18.85;12.82;;;;;;;17.08;72.91;98894.11;2211045;81;21010;-80
2021/07/24 02:15:04;;;;;;;13.32;11.93;;;;;;;17.05;72.99;98898.11;2211038;81;20992;-78
2021/07/24 02:18:05;;;;;;;21.52;13.22;;;;;;;17.01;73.11;98895.09;2211320;81;20956;-79
2021/07/24 02:21:05;;;;;;;18.60;13.13;;;;;;;16.98;73.07;98892.05;2211552;81;21004;-78
2021/07/24 02:24:06;;;;;;;15.98;13.30;;;;;;;16.99;73.16;98897.74;2211136;81;21039;-79
2021/07/24 02:27:06;;;;;;;15.58;13.38;;;;;;;16.99;73.22;98894.23;2211136;81;20968;-78
2021/07/24 02:30:07;;;;;;;20.92;14.47;;;;;;;16.96;73.17;98898.23;2211282;81;21297;-78
2021/07/24 02:33:07;;;;;;;15.35;13.10;;;;;;;16.88;73.24;98889.97;2211093;81;20929;-79
2021/07/24 02:36:08;;;;;;;21.42;13.58;;;;;;;16.79;73.32;98891.84;2211028;81;21027;-78
2021/07/24 02:39:09;;;;;;;14.45;13.00;;;;;;;16.66;73.57;98888.94;2210582;81;21026;-78
2021/07/24 02:42:09;;;;;;;16.77;13.13;;;;;;;16.55;73.72;98883.76;2211054;81;20975;-78
2021/07/24 02:45:09;;;;;;;21.15;14.75;;;;;;;16.49;73.91;98888.66;2210978;81;20965;-78
2021/07/24 02:48:10;;;;;;;16.80;12.75;;;;;;;16.46;74.17;98883.39;2211094;81;20969;-78
2021/07/24 02:51:10;;;;;;;14.10;12.58;;;;;;;16.43;74.16;98884.73;2210761;81;20953;-77
2021/07/24 02:54:11;;;;;;;19.40;13.45;;;;;;;16.39;74.29;98886.98;2210684;81;20936;-78
2021/07/24 02:57:11;;;;;;;15.18;12.75;;;;;;;16.38;74.39;98888.31;2210852;81;21345;-77
2021/07/24 03:00:12;;;;;;;17.92;12.30;;;;;;;16.37;74.34;98888.75;2210931;81;20964;-77
2021/07/24 03:03:14;;;;;;;14.07;12.68;;;;;;;16.35;74.34;98890.98;2211052;81;20979;-78
2021/07/24 03:06:15;;;;;;;15.25;13.18;;;;;;;16.31;74.29;98888.82;2210745;81;20939;-78
2021/07/24 03:09:15;;;;;;;19.57;13.03;;;;;;;16.30;74.43;98891.03;2210927;81;20965;-78
2021/07/24 03:12:17;;;;;;;17.17;13.22;;;;;;;16.31;74.49;98887.95;2210870;81;21278;-79
2021/07/24 03:15:20;;;;;;;17.32;13.10;;;;;;;16.31;74.46;98891.45;2210833;81;21075;-78
2021/07/24 03:18:22;;;;;;;15.17;12.50;;;;;;;16.28;74.46;98886.22;2210980;81;20917;-79
2021/07/24 03:21:22;;;;;;;14.25;12.40;;;;;;;16.26;74.42;98890.63;2210972;81;21229;-78
2021/07/24 03:24:23;;;;;;;15.90;13.90;;;;;;;16.22;74.48;98891.55;2210805;81;21038;-78
2021/07/24 03:27:23;;;;;;;14.38;12.82;;;;;;;16.21;74.35;98892.44;2210815;81;20968;-79
2021/07/24 03:30:24;;;;;;;13.78;12.15;;;;;;;16.17;74.48;98890.72;2210811;81;20948;-78
2021/07/24 03:33:24;;;;;;;14.05;12.55;;;;;;;16.14;74.59;98885.48;2210502;81;21328;-79
2021/07/24 03:36:25;;;;;;;15.43;12.85;;;;;;;16.15;74.62;98891.18;2210738;81;20964;-79
2021/07/24 03:39:25;;;;;;;18.42;12.73;;;;;;;16.15;74.72;98886.78;2210859;81;20987;-79
2021/07/24 03:42:26;;;;;;;13.88;12.45;;;;;;;16.21;74.64;98892.00;2210826;81;20937;-79
2021/07/24 03:45:26;;;;;;;14.05;12.65;;;;;;;16.24;74.63;98883.19;2210774;81;21340;-79
2021/07/24 03:48:27;;;;;;;14.33;12.93;;;;;;;16.29;74.53;98884.02;2211045;81;21353;-79
2021/07/24 03:51:27;;;;;;;15.23;13.55;;;;;;;16.33;74.50;98891.00;2210563;81;20999;-78
2021/07/24 03:54:28;;;;;;;13.53;12.23;;;;;;;16.38;74.44;98889.19;2211512;80;20972;-79
2021/07/24 03:57:28;;;;;;;15.15;12.73;;;;;;;16.47;74.46;98887.80;2221217;80;20983;-78
2021/07/24 04:00:41;;;;;;;15.18;12.63;;;;;;;16.55;74.35;98895.17;2221029;80;20956;-79
2021/07/24 04:03:37;;;;;;;17.17;13.88;;;;;;;16.66;74.34;98890.25;2218758;80;21815;-78
2021/07/24 04:06:38;;;;;;;19.87;13.20;;;;;;;16.93;74.01;98893.87;2220679;80;20956;-78
2021/07/24 04:09:38;;;;;;;24.18;13.62;;;;;;;16.93;74.01;98893.87;2221569;80;20948;-79
2021/07/24 04:12:42;;;;;;;16.70;14.00;;;;;;;17.36;75.32;98888.91;2222123;80;21277;-80
2021/07/24 04:15:42;;;;;;;21.97;15.18;;;;;;;17.98;73.59;98891.02;2221741;80;21079;-79
2021/07/24 04:18:43;;;;;;;19.65;13.83;;;;;;;17.86;72.34;98894.31;2221668;80;20947;-79
2021/07/24 04:21:43;;;;;;;34.73;15.15;;;;;;;17.72;72.27;98896.73;2221603;80;21427;-80
2021/07/24 04:24:44;;;;;;;13.83;12.55;;;;;;;17.87;72.96;98900.02;2221539;80;21391;-79
2021/07/24 04:27:45;;;;;;;18.55;14.58;;;;;;;18.32;72.82;98895.73;2221198;80;20940;-78
2021/07/24 04:30:45;;;;;;;15.38;13.43;;;;;;;18.32;72.07;98896.61;2220707;80;20968;-79
2021/07/24 04:33:45;;;;;;;23.45;14.28;;;;;;;18.86;72.31;98895.59;2220573;80;20968;-79
2021/07/24 04:36:46;;;;;;;16.15;13.05;;;;;;;19.15;70.42;98897.65;2221029;80;20995;-78
2021/07/24 04:39:46;;;;;;;15.85;12.90;;;;;;;19.09;70.07;98892.91;2220676;80;20951;-80
2021/07/24 04:42:47;;;;;;;16.60;12.43;;;;;;;19.09;70.03;98896.87;2221177;80;20983;-80
2021/07/24 04:45:47;;;;;;;14.38;12.88;;;;;;;19.40;70.13;98895.73;2221976;80;21598;-81
2021/07/24 04:48:48;;;;;;;24.92;14.33;;;;;;;19.61;68.54;98890.43;2221815;80;21015;-80
2021/07/24 04:51:48;;;;;;;16.85;15.08;;;;;;;19.59;69.06;98896.22;2221945;80;20952;-79
2021/07/24 04:54:49;;;;;;;26.90;23.15;;;;;;;20.00;68.48;98891.72;2221644;80;21055;-79
2021/07/24 04:57:50;;;;;;;15.20;13.40;;;;;;;20.19;67.70;98893.44;2221668;80;20940;-80
2021/07/24 05:00:51;;;;;;;14.73;13.32;;;;;;;20.26;67.32;98890.58;2221707;80;21000;-78
2021/07/24 05:03:51;;;;;;;23.83;14.00;;;;;;;20.30;67.13;98892.70;2220799;80;20952;-78
2021/07/24 05:06:52;;;;;;;18.87;13.43;;;;;;;20.33;66.65;98887.31;2221688;80;20976;-78
2021/07/24 05:09:52;;;;;;;22.52;13.98;;;;;;;20.32;66.87;98893.53;2221011;80;20916;-82
2021/07/24 05:12:53;;;;;;;15.58;13.15;;;;;;;20.43;66.72;98897.25;2220966;80;20939;-78
2021/07/24 05:15:53;;;;;;;17.17;12.98;;;;;;;20.54;66.22;98901.34;2220871;80;21311;-78
2021/07/24 05:18:56;;;;;;;15.63;14.00;;;;;;;20.51;65.50;98900.11;2221249;80;20940;-78
2021/07/24 05:21:56;;;;;;;80.47;21.00;;;;;;;20.38;65.80;98899.98;2221279;80;21075;-78
2021/07/24 05:24:56;;;;;;;22.17;14.13;;;;;;;20.60;65.82;98898.98;2220920;80;21019;-77
2021/07/24 05:27:57;;;;;;;17.07;12.90;;;;;;;20.77;65.22;98899.38;2221438;80;20956;-78
2021/07/24 05:30:58;;;;;;;14.73;12.70;;;;;;;20.62;64.96;98902.46;2221059;80;20944;-78
2021/07/24 05:33:58;;;;;;;16.20;12.75;;;;;;;20.67;65.04;98896.57;2221754;80;21014;-79
2021/07/24 05:36:59;;;;;;;16.65;13.05;;;;;;;20.84;64.33;98897.45;2221519;80;20971;-78
2021/07/24 05:39:59;;;;;;;16.10;13.43;;;;;;;20.93;64.17;98898.05;2221481;80;20991;-78
2021/07/24 05:43:00;;;;;;;14.95;12.80;;;;;;;20.90;63.60;98893.30;2221588;80;21392;-78
2021/07/24 05:46:01;;;;;;;18.65;12.33;;;;;;;20.96;63.46;98893.98;2221782;80;20944;-81
2021/07/24 05:49:01;;;;;;;17.62;12.90;;;;;;;21.04;63.42;98888.91;2221673;80;20967;-80
2021/07/24 05:52:02;;;;;;;16.12;12.68;;;;;;;21.23;63.07;98883.49;2221862;80;20893;-79
2021/07/24 05:55:02;;;;;;;18.07;12.75;;;;;;;21.28;63.02;98878.91;2220660;80;21167;-79
2021/07/24 05:58:03;;;;;;;14.98;12.30;;;;;;;21.58;62.88;98881.93;2211307;81;20940;-83
2021/07/24 06:01:03;;;;;;;17.73;12.18;;;;;;;21.84;62.46;98881.11;2211151;81;20921;-80
2021/07/24 06:04:04;;;;;;;17.35;12.50;;;;;;;22.09;61.27;98879.86;2211473;81;20945;-79
2021/07/24 06:07:04;;;;;;;12.93;11.15;;;;;;;22.25;61.05;98884.19;2211573;81;20940;-80
2021/07/24 06:10:05;;;;;;;18.15;13.70;;;;;;;22.41;60.68;98880.53;2211550;81;20972;-80
2021/07/24 06:13:05;;;;;;;11.73;10.00;;;;;;;22.55;60.08;98879.61;2211577;81;20956;-79
2021/07/24 06:16:06;;;;;;;13.18;11.18;;;;;;;22.62;59.39;98881.13;2211713;81;20983;-79
2021/07/24 06:19:06;;;;;;;13.55;10.28;;;;;;;22.59;59.09;98888.35;2211413;81;21062;-79
2021/07/24 06:22:08;;;;;;;11.33;9.95;;;;;;;22.58;58.56;98887.94;2211555;81;20972;-79
2021/07/24 06:25:09;;;;;;;14.03;10.75;;;;;;;22.37;58.82;98886.42;2211657;81;20956;-79
2021/07/24 06:28:09;;;;;;;13.93;10.58;;;;;;;22.25;58.66;98889.05;2211539;81;20979;-78
2021/07/24 06:31:10;;;;;;;12.50;10.13;;;;;;;22.35;59.45;98890.06;2211339;81;21023;-78
2021/07/24 06:34:10;;;;;;;16.55;11.03;;;;;;;22.62;58.83;98889.57;2210912;81;20975;-78
2021/07/24 06:37:11;;;;;;;14.55;12.53;;;;;;;22.90;58.21;98881.02;2210457;81;20940;-80
2021/07/24 06:40:11;;;;;;;26.50;12.00;;;;;;;23.08;57.39;98878.12;2210505;81;20921;-79
2021/07/24 06:43:12;;;;;;;22.60;11.57;;;;;;;23.16;56.74;98873.36;2210541;81;21321;-78
2021/07/24 06:46:12;;;;;;;13.18;11.25;;;;;;;23.04;56.16;98880.03;2210404;81;20952;-78
2021/07/24 06:49:13;;;;;;;15.53;10.75;;;;;;;22.82;56.46;98882.63;2210222;81;20991;-79
2021/07/24 06:52:13;;;;;;;13.98;11.68;;;;;;;22.68;57.13;98878.70;2210960;81;20990;-79
2021/07/24 06:55:14;;;;;;;13.65;10.70;;;;;;;22.69;57.17;98878.65;2211911;80;21019;-79
2021/07/24 06:58:14;;;;;;;12.40;10.30;;;;;;;22.81;56.80;98885.34;2221344;80;20948;-79
2021/07/24 07:01:15;;;;;;;14.83;10.78;;;;;;;22.80;56.82;98884.48;2221991;80;21348;-80
2021/07/24 07:04:15;;;;;;;11.20;10.03;;;;;;;22.72;57.33;98882.53;2221517;80;20944;-78
2021/07/24 07:07:19;;;;;;;10.50;9.50;;;;;;;22.80;57.42;98884.94;2221681;80;20921;-79
2021/07/24 07:10:19;;;;;;;13.22;9.78;;;;;;;23.12;58.04;98880.60;2221008;80;20991;-78
2021/07/24 07:13:19;;;;;;;10.93;9.83;;;;;;;23.41;56.57;98879.97;2221508;80;20960;-78
2021/07/24 07:16:19;;;;;;;10.50;9.45;;;;;;;23.39;56.67;98886.66;2221460;80;21007;-79
2021/07/24 07:19:20;;;;;;;16.20;10.13;;;;;;;23.30;57.20;98884.34;2221569;80;20983;-78
2021/07/24 07:22:20;;;;;;;9.80;8.90;;;;;;;23.53;57.67;98889.27;2221826;80;20975;-79
2021/07/24 07:25:21;;;;;;;8.93;8.05;;;;;;;24.16;56.37;98884.44;2221532;80;20975;-78
2021/07/24 07:28:22;;;;;;;9.03;7.90;;;;;;;24.46;53.75;98884.98;2221580;80;20969;-79
2021/07/24 07:31:22;;;;;;;8.48;7.55;;;;;;;24.89;52.81;98887.07;2221670;80;21293;-79
2021/07/24 07:34:23;;;;;;;9.90;8.08;;;;;;;25.21;50.87;98890.52;2221870;80;20980;-78
2021/07/24 07:37:23;;;;;;;11.40;8.70;;;;;;;25.52;50.37;98881.91;2221491;80;20963;-79
2021/07/24 07:40:23;;;;;;;9.20;8.03;;;;;;;25.68;48.57;98880.27;2221168;80;20963;-78
2021/07/24 07:43:24;;;;;;;9.35;7.47;;;;;;;25.62;48.10;98881.00;2221802;80;20936;-78
2021/07/24 07:46:24;;;;;;;8.25;7.33;;;;;;;25.72;47.86;98883.66;2221344;80;20964;-78
2021/07/24 07:49:25;;;;;;;8.58;6.72;;;;;;;26.03;47.90;98890.58;2221267;80;21316;-79
2021/07/24 07:52:27;;;;;;;7.58;6.75;;;;;;;26.47;47.18;98887.95;2221882;80;20928;-79
2021/07/24 07:55:28;;;;;;;7.28;6.65;;;;;;;26.91;46.32;98890.50;2220420;80;21402;-79
2021/07/24 07:58:28;;;;;;;10.38;6.70;;;;;;;26.95;44.33;98886.71;2210724;80;20924;-79
2021/07/24 08:01:29;;;;;;;8.45;6.58;;;;;;;26.61;44.15;98892.97;2211320;80;20933;-79
2021/07/24 08:04:29;;;;;;;13.20;6.92;;;;;;;26.31;44.21;98889.17;2211472;80;21348;-79
2021/07/24 08:07:30;;;;;;;8.38;6.28;;;;;;;26.34;44.94;98897.95;2211224;80;20951;-78
2021/07/24 08:10:30;;;;;;;7.75;6.70;;;;;;;26.31;44.08;98897.20;2211277;80;21112;-80
2021/07/24 08:13:31;;;;;;;6.90;6.17;;;;;;;26.34;44.18;98891.73;2211714;80;21011;-78
2021/07/24 08:16:31;;;;;;;9.53;6.20;;;;;;;26.55;44.19;98891.95;2211547;80;20949;-79
2021/07/24 08:19:32;;;;;;;7.03;6.30;;;;;;;26.94;43.54;98884.12;2211207;80;21345;-79
2021/07/24 08:22:32;;;;;;;9.00;6.25;;;;;;;27.41;42.54;98882.00;2211665;81;20980;-79
2021/07/24 08:25:33;;;;;;;8.23;6.17;;;;;;;27.78;41.17;98880.37;2211559;81;21007;-80
2021/07/24 08:28:34;;;;;;;8.88;6.90;;;;;;;27.84;41.34;98873.30;2211418;81;20937;-79
2021/07/24 08:31:34;;;;;;;11.97;6.92;;;;;;;28.19;40.77;98873.05;2211488;81;20972;-79
2021/07/24 08:34:35;;;;;;;7.12;6.30;;;;;;;28.39;38.57;98875.92;2211477;80;21060;-79
2021/07/24 08:37:35;;;;;;;7.85;6.83;;;;;;;28.57;39.16;98875.28;2211408;80;21351;-81
2021/07/24 08:40:36;;;;;;;6.28;5.78;;;;;;;28.64;38.62;98873.98;2211766;80;20940;-78
2021/07/24 08:43:36;;;;;;;7.08;6.37;;;;;;;28.83;37.35;98873.23;2211518;80;20994;-79
2021/07/24 08:46:37;;;;;;;11.70;6.40;;;;;;;28.83;36.27;98865.17;2211118;80;20952;-78
2021/07/24 08:49:37;;;;;;;6.12;5.62;;;;;;;28.85;35.91;98868.66;2210947;80;20940;-80
2021/07/24 08:52:38;;;;;;;6.47;5.65;;;;;;;28.87;35.87;98864.53;2210952;81;21344;-79
2021/07/24 08:55:41;;;;;;;6.83;6.22;;;;;;;28.81;36.12;98864.41;2211350;80;21023;-79
2021/07/24 08:58:41;;;;;;;9.08;6.30;;;;;;;28.63;36.47;98856.14;2221350;80;21011;-80
2021/07/24 09:01:42;;;;;;;33.63;30.05;;;;;;;28.39;36.37;98853.09;2221528;80;21276;-80
2021/07/24 09:04:42;;;;;;;7.87;6.70;;;;;;;28.37;37.02;98855.88;2221747;80;20936;-81
2021/07/24 09:07:43;;;;;;;8.78;6.85;;;;;;;28.42;36.68;98851.09;2221559;80;20960;-79
2021/07/24 09:10:46;;;;;;;9.38;6.78;;;;;;;28.23;37.76;98854.50;2221598;80;20944;-79
2021/07/24 09:13:46;;;;;;;8.23;6.70;;;;;;;28.28;38.33;98861.80;2221905;80;21008;-79
2021/07/24 09:16:46;;;;;;;12.80;7.20;;;;;;;28.31;37.94;98848.67;2220807;80;20992;-81
2021/07/24 09:19:47;;;;;;;9.80;6.90;;;;;;;28.37;37.89;98842.45;2221467;80;20952;-79
2021/07/24 09:22:47;;;;;;;8.60;7.03;;;;;;;28.58;37.71;98846.12;2221554;80;20945;-80
2021/07/24 09:25:48;;;;;;;8.78;7.45;;;;;;;28.12;38.30;98832.30;2221337;80;21356;-79
2021/07/24 09:28:48;;;;;;;7.22;6.53;;;;;;;28.41;38.64;98841.79;2221455;80;20955;-80
2021/07/24 09:31:49;;;;;;;8.18;6.80;;;;;;;28.67;38.38;98836.19;2221419;80;20968;-80
2021/07/24 09:34:49;;;;;;;8.28;6.10;;;;;;;28.86;37.09;98831.44;2220783;80;20979;-79
2021/07/24 09:37:50;;;;;;;7.28;6.42;;;;;;;28.90;36.90;98830.28;2220604;80;21438;-80
2021/07/24 09:40:50;;;;;;;7.08;6.10;;;;;;;28.80;37.32;98833.98;2221446;80;20971;-79
2021/07/24 09:43:51;;;;;;;8.40;7.47;;;;;;;29.09;37.20;98829.49;2221195;80;20951;-79
2021/07/24 09:46:51;;;;;;;7.78;7.00;;;;;;;29.52;36.42;98828.12;2220684;80;20968;-79
2021/07/24 09:49:51;;;;;;;7.83;7.08;;;;;;;29.71;34.94;98817.87;2221246;80;20995;-78
2021/07/24 09:52:52;;;;;;;9.68;6.60;;;;;;;29.56;36.44;98820.23;2221337;80;20999;-80
2021/07/24 09:55:52;;;;;;;8.25;6.75;;;;;;;29.76;35.88;98818.42;2220720;80;21337;-79
2021/07/24 09:58:53;;;;;;;6.83;6.33;;;;;;;29.43;36.08;98824.17;2210798;80;21348;-78
2021/07/24 10:01:56;;;;;;;7.08;6.37;;;;;;;29.67;35.61;98818.17;2210848;81;20933;-79
2021/07/24 10:04:57;;;;;;;7.90;6.70;;;;;;;29.70;35.73;98816.14;2210747;81;20924;-78
2021/07/24 10:07:58;;;;;;;9.90;7.03;;;;;;;29.78;34.79;98820.53;2210524;81;20983;-79
2021/07/24 10:10:58;;;;;;;7.53;6.92;;;;;;;29.65;35.24;98818.27;2210183;80;20980;-80
2021/07/24 10:13:58;;;;;;;14.45;7.35;;;;;;;29.76;35.59;98821.59;2210709;80;20976;-80
2021/07/24 10:16:59;;;;;;;12.10;8.50;;;;;;;29.90;34.62;98808.56;2210629;80;20956;-78
2021/07/24 10:20:00;;;;;;;7.95;7.08;;;;;;;29.80;35.00;98806.97;2210549;81;20983;-78
2021/07/24 10:23:00;;;;;;;7.72;6.20;;;;;;;29.99;35.39;98802.55;2210816;80;20959;-79
2021/07/24 10:26:01;;;;;;;6.80;6.20;;;;;;;30.25;34.37;98796.27;2210600;80;20945;-78
2021/07/24 10:29:01;;;;;;;7.58;6.45;;;;;;;30.24;33.31;98790.51;2210884;80;21344;-78
2021/07/24 10:32:02;;;;;;;7.10;6.47;;;;;;;29.78;33.87;98794.10;2210658;80;20984;-79
2021/07/24 10:35:03;;;;;;;8.65;6.55;;;;;;;29.34;34.95;98791.62;2210606;81;20991;-79
2021/07/24 10:38:03;;;;;;;8.35;7.08;;;;;;;29.47;34.30;98778.64;2210575;81;20975;-79
2021/07/24 10:41:04;;;;;;;6.67;6.10;;;;;;;29.21;35.82;98782.63;2210626;80;20998;-77
2021/07/24 10:44:04;;;;;;;6.40;5.90;;;;;;;29.50;35.64;98788.36;2210583;81;20947;-78
2021/07/24 10:47:05;;;;;;;6.72;6.17;;;;;;;29.78;35.59;98775.27;2210596;81;20972;-79
2021/07/24 10:50:05;;;;;;;7.75;6.80;;;;;;;29.95;34.67;98776.33;2210359;80;21368;-79
2021/07/24 10:53:07;;;;;;;6.22;5.70;;;;;;;29.87;34.86;98774.65;2210106;81;21375;-78
2021/07/24 10:56:08;;;;;;;28.35;25.40;;;;;;;30.33;34.38;98773.71;2210466;80;21031;-79
2021/07/24 10:59:08;;;;;;;7.45;6.58;;;;;;;30.87;33.21;98772.17;2210427;81;21369;-78
2021/07/24 11:02:13;;;;;;;10.00;7.72;;;;;;;30.95;32.88;98764.39;2210753;80;20991;-78
2021/07/24 11:05:11;;;;;;;7.20;6.47;;;;;;;30.96;33.24;98765.25;2210029;80;21259;-78
2021/07/24 11:08:12;;;;;;;7.92;6.35;;;;;;;30.78;33.07;98770.62;2210867;80;21383;-78
2021/07/24 11:11:12;;;;;;;6.78;6.05;;;;;;;30.57;32.89;98767.60;2210323;80;21392;-78
2021/07/24 11:14:13;;;;;;;10.35;6.70;;;;;;;30.89;32.69;98775.61;2209863;80;20984;-78
2021/07/24 11:17:16;;;;;;;6.08;5.47;;;;;;;30.73;32.21;98764.22;2209829;80;20971;-78
2021/07/24 11:20:20;;;;;;;6.87;5.67;;;;;;;30.87;32.83;98765.92;2209910;80;20956;-78
2021/07/24 11:23:19;;;;;;;6.70;6.00;;;;;;;30.83;32.10;98763.93;2209755;80;20951;-78
2021/07/24 11:26:20;;;;;;;7.22;5.80;;;;;;;31.09;32.12;98757.98;2210512;81;20972;-78
2021/07/24 11:29:20;;;;;;;6.67;6.08;;;;;;;31.06;31.34;98763.61;2210898;80;20988;-78
2021/07/24 11:32:21;;;;;;;6.60;6.00;;;;;;;31.03;31.46;98767.39;2210649;80;21375;-78
2021/07/24 11:35:21;;;;;;;7.70;5.60;;;;;;;30.26;32.00;98769.72;2210820;80;21027;-78
2021/07/24 11:38:22;;;;;;;7.62;5.70;;;;;;;30.64;31.91;98752.75;2210691;80;21003;-77
2021/07/24 11:41:22;;;;;;;6.72;5.55;;;;;;;30.86;31.62;98752.93;2210808;80;20971;-78
2021/07/24 11:44:22;;;;;;;6.37;5.78;;;;;;;30.68;32.11;98760.99;2210738;80;21065;-78
2021/07/24 11:47:23;;;;;;;6.62;5.90;;;;;;;30.14;32.75;98766.54;2210893;80;21352;-78
2021/07/24 11:50:23;;;;;;;9.13;5.92;;;;;;;29.82;33.11;98762.48;2210785;80;20913;-78
2021/07/24 11:53:24;;;;;;;6.40;5.83;;;;;;;30.33;32.68;98751.31;2210931;80;20992;-78
2021/07/24 11:56:24;;;;;;;8.58;6.10;;;;;;;30.58;31.69;98757.20;2211204;80;20987;-79
2021/07/24 11:59:25;;;;;;;7.92;6.03;;;;;;;30.51;32.14;98751.39;2221061;80;20936;-78
2021/07/24 12:02:25;;;;;;;6.08;5.60;;;;;;;30.77;31.65;98750.91;2221055;80;20936;-79
2021/07/24 12:05:26;;;;;;;21.73;19.37;;;;;;;30.98;32.22;98752.04;2221049;80;20929;-78
2021/07/24 12:08:26;;;;;;;8.78;7.90;;;;;;;30.63;32.13;98751.03;2221062;80;21575;-77
2021/07/24 12:11:27;;;;;;;7.35;6.75;;;;;;;30.39;33.06;98746.39;2221224;80;21336;-78
2021/07/24 12:14:27;;;;;;;6.55;5.95;;;;;;;30.15;33.47;98752.59;2221091;80;20983;-77
2021/07/24 12:17:28;;;;;;;6.47;5.87;;;;;;;30.13;33.70;98754.05;2221115;80;20952;-77
2021/07/24 12:20:28;;;;;;;8.70;5.90;;;;;;;30.13;33.70;98748.67;2221074;80;20948;-78
2021/07/24 12:23:29;;;;;;;6.25;5.60;;;;;;;30.10;34.12;98750.23;2220909;80;20932;-78
2021/07/24 12:26:31;;;;;;;7.17;6.53;;;;;;;29.95;34.11;98749.91;2220925;80;20991;-78
2021/07/24 12:29:32;;;;;;;6.87;5.83;;;;;;;30.25;33.77;98741.56;2221132;80;20980;-77
2021/07/24 12:32:32;;;;;;;6.35;5.80;;;;;;;30.31;33.03;98736.61;2221291;80;20924;-77
2021/07/24 12:35:33;;;;;;;6.25;5.47;;;;;;;30.23;32.99;98733.59;2220756;80;21010;-79
2021/07/24 12:38:33;;;;;;;6.37;5.40;;;;;;;30.55;33.48;98730.48;2220607;80;21379;-78
2021/07/24 12:41:34;;;;;;;8.83;6.12;;;;;;;30.90;32.98;98731.52;2220573;80;21419;-79
2021/07/24 12:44:35;;;;;;;8.68;6.00;;;;;;;30.92;32.61;98730.06;2220924;80;21007;-79
2021/07/24 12:47:35;;;;;;;34.00;30.12;;;;;;;30.54;32.73;98719.33;2220872;80;20967;-81
2021/07/24 12:50:36;;;;;;;14.83;13.28;;;;;;;30.32;33.33;98722.66;2220837;80;20968;-79
2021/07/24 12:53:36;;;;;;;9.03;8.15;;;;;;;29.92;33.85;98727.24;2220838;80;20960;-79
2021/07/24 12:56:37;;;;;;;9.65;8.75;;;;;;;29.73;34.29;98727.64;2220419;80;20951;-79
2021/07/24 12:59:38;;;;;;;7.05;6.35;;;;;;;29.74;34.39;98729.37;2210334;80;21011;-78
2021/07/24 13:02:41;;;;;;;7.70;6.70;;;;;;;29.52;34.44;98725.06;2210518;80;20984;-79
2021/07/24 13:05:41;;;;;;;9.55;5.78;;;;;;;29.42;35.34;98727.44;2210965;81;20929;-78
2021/07/24 13:08:43;;;;;;;11.22;6.10;;;;;;;29.43;35.60;98728.72;2211072;80;21369;-77
2021/07/24 13:11:44;;;;;;;8.03;6.35;;;;;;;29.42;35.43;98730.99;2210955;81;20948;-79
2021/07/24 13:14:44;;;;;;;11.83;6.17;;;;;;;29.35;35.58;98729.68;2210761;81;21746;-78
2021/07/24 13:17:45;;;;;;;6.67;5.95;;;;;;;29.30;36.10;98737.67;2210282;80;20971;-78
2021/07/24 13:20:45;;;;;;;12.80;7.33;;;;;;;29.22;36.35;98736.83;2210207;80;20955;-79
2021/07/24 13:23:52;;;;;;;8.78;7.97;;;;;;;28.94;37.43;98732.40;2210563;80;20972;-79
2021/07/24 13:30:07;;;;;;;13.50;8.35;;;;;;;28.48;38.64;98736.61;2210925;80;20940;-79
2021/07/24 13:33:07;;;;;;;11.40;8.18;;;;;;;28.32;38.81;98726.45;2210961;80;20987;-79
2021/07/24 13:36:08;;;;;;;8.30;7.45;;;;;;;28.11;39.32;98723.23;2210811;80;20957;-80
2021/07/24 13:39:08;;;;;;;11.22;7.53;;;;;;;28.01;39.69;98730.13;2211016;80;20921;-79
2021/07/24 13:42:09;;;;;;;11.28;7.55;;;;;;;28.27;39.08;98725.88;2210493;80;21024;-80
2021/07/24 13:45:09;;;;;;;10.60;7.80;;;;;;;28.39;39.18;98725.11;2211005;80;20912;-79
2021/07/24 13:48:10;;;;;;;10.88;7.75;;;;;;;28.49;38.89;98728.94;2210871;80;21015;-80
2021/07/24 13:51:10;;;;;;;8.63;7.83;;;;;;;28.36;39.79;98726.64;2211104;80;21341;-79
2021/07/24 13:54:11;;;;;;;8.85;8.03;;;;;;;28.18;39.75;98719.70;2210955;80;21328;-80
2021/07/24 13:57:11;;;;;;;13.75;8.10;;;;;;;28.31;40.03;98718.02;2210783;80;20972;-81
2021/07/24 14:00:12;;;;;;;9.88;7.67;;;;;;;28.14;40.03;98718.16;2211012;81;20917;-78
2021/07/24 14:03:12;;;;;;;8.65;7.83;;;;;;;28.31;39.88;98707.75;2210909;81;21034;-79
2021/07/24 14:06:13;;;;;;;10.75;7.42;;;;;;;28.52;39.32;98715.32;2210500;80;21003;-80